createdAt,value
2019-03-25T00:01:38.955Z,31.50
2019-03-25T00:04:11.026Z,30.20
2019-03-25T00:06:43.078Z,30.57
2019-03-25T00:09:15.298Z,30.33
2019-03-25T00:11:47.491Z,31.13
2019-03-25T00:14:19.516Z,32.17
2019-03-25T00:16:51.604Z,30.03
2019-03-25T00:19:23.633Z,30.80
2019-03-25T00:21:55.572Z,28.77
2019-03-25T00:24:38.230Z,29.33
2019-03-25T00:27:01.537Z,30.33
2019-03-25T00:29:33.564Z,30.93
2019-03-25T00:32:05.557Z,29.40
2019-03-25T00:34:37.687Z,30.00
2019-03-25T00:37:09.746Z,30.67
2019-03-25T00:39:42.215Z,30.97
2019-03-25T00:42:14.757Z,30.77
2019-03-25T00:44:46.850Z,29.73
2019-03-25T00:47:19.084Z,32.00
2019-03-25T00:49:52.302Z,31.30
2019-03-25T00:52:24.526Z,29.67
2019-03-25T00:54:56.485Z,31.00
2019-03-25T00:57:28.384Z,30.70
2019-03-25T01:00:00.422Z,30.67
2019-03-25T01:02:32.379Z,32.03
2019-03-25T01:05:04.530Z,30.27
2019-03-25T01:07:36.510Z,29.17
2019-03-25T01:10:09.017Z,30.17
2019-03-25T01:12:41.101Z,30.90
2019-03-25T01:15:13.234Z,30.10
2019-03-25T01:17:45.295Z,29.20
2019-03-25T01:20:17.403Z,28.97
2019-03-25T01:22:49.444Z,27.53
2019-03-25T01:25:21.467Z,30.83
2019-03-25T01:27:53.433Z,30.07
2019-03-25T01:30:25.457Z,29.77
2019-03-25T01:32:57.340Z,30.37
2019-03-25T01:35:29.366Z,29.73
2019-03-25T01:38:01.344Z,29.30
2019-03-25T01:40:33.496Z,28.63
2019-03-25T01:43:05.551Z,27.20
2019-03-25T01:45:37.645Z,28.70
2019-03-25T01:48:09.544Z,29.53
2019-03-25T01:50:41.563Z,26.60
2019-03-25T01:53:13.493Z,27.77
2019-03-25T01:55:45.504Z,26.73
2019-03-25T01:58:17.392Z,27.07
2019-03-25T02:00:49.417Z,26.73
2019-03-25T02:03:21.433Z,26.83
2019-03-25T02:05:53.564Z,25.80
2019-03-25T02:08:25.468Z,25.77
2019-03-25T02:10:57.470Z,25.07
2019-03-25T02:13:29.526Z,24.10
2019-03-25T02:16:01.686Z,26.00
2019-03-25T02:18:33.781Z,25.60
2019-03-25T02:21:06.526Z,25.20
2019-03-25T02:23:38.590Z,24.30
2019-03-25T02:26:10.677Z,23.67
2019-03-25T02:28:42.662Z,23.13
2019-03-25T02:31:14.724Z,23.77
2019-03-25T02:33:46.717Z,21.53
2019-03-25T02:36:18.777Z,22.93
2019-03-25T02:38:50.828Z,21.00
2019-03-25T02:41:22.781Z,21.50
2019-03-25T02:43:54.676Z,20.13
2019-03-25T02:46:26.649Z,19.13
2019-03-25T02:48:58.674Z,18.10
2019-03-25T02:51:30.951Z,17.83
2019-03-25T02:54:02.922Z,17.33
2019-03-25T02:56:35.014Z,18.27
2019-03-25T02:59:07.011Z,17.80
2019-03-25T03:01:39.078Z,17.60
2019-03-25T03:04:11.181Z,17.57
2019-03-25T03:06:43.213Z,17.73
2019-03-25T03:09:15.174Z,17.97
2019-03-25T03:11:47.303Z,18.67
2019-03-25T03:14:19.188Z,17.50
2019-03-25T03:16:51.224Z,17.07
2019-03-25T03:19:23.236Z,18.53
2019-03-25T03:21:55.026Z,18.53
2019-03-25T03:24:27.045Z,19.03
2019-03-25T03:26:58.994Z,17.90
2019-03-25T03:29:31.032Z,18.93
2019-03-25T03:32:02.997Z,18.13
2019-03-25T03:34:35.856Z,18.33
2019-03-25T03:37:07.974Z,17.23
2019-03-25T03:39:39.989Z,18.93
2019-03-25T03:42:12.006Z,18.57
2019-03-25T03:44:43.869Z,17.97
2019-03-25T03:47:15.855Z,18.57
2019-03-25T03:49:48.174Z,17.03
2019-03-25T03:52:20.474Z,17.77
2019-03-25T03:54:52.492Z,18.73
2019-03-25T03:57:24.607Z,18.10
2019-03-25T03:59:56.708Z,17.53
2019-03-25T04:02:29.046Z,17.97
2019-03-25T04:05:00.990Z,19.20
2019-03-25T04:07:32.978Z,19.33
2019-03-25T04:10:05.416Z,19.60
2019-03-25T04:12:37.485Z,18.93
2019-03-25T04:15:11.031Z,18.33
2019-03-25T04:17:42.987Z,17.87
2019-03-25T04:20:15.300Z,17.20
2019-03-25T04:22:47.450Z,18.00
2019-03-25T04:25:19.645Z,20.13
2019-03-25T04:27:51.643Z,18.50
2019-03-25T04:30:24.618Z,19.83
2019-03-25T04:32:56.671Z,20.70
2019-03-25T04:35:29.637Z,20.20
2019-03-25T04:38:01.634Z,20.43
2019-03-25T04:40:33.634Z,20.27
2019-03-25T04:43:05.643Z,18.60
2019-03-25T04:45:37.716Z,18.70
2019-03-25T04:48:09.677Z,18.63
2019-03-25T04:50:41.572Z,18.47
2019-03-25T04:53:13.576Z,18.67
2019-03-25T04:55:45.530Z,18.60
2019-03-25T04:58:17.578Z,17.57
2019-03-25T05:00:49.485Z,17.67
2019-03-25T05:03:21.341Z,16.63
2019-03-25T05:05:53.299Z,15.87
2019-03-25T05:08:25.217Z,15.57
2019-03-25T05:10:57.114Z,15.00
2019-03-25T05:13:29.169Z,15.40
2019-03-25T05:16:01.255Z,15.37
2019-03-25T05:18:33.301Z,15.97
2019-03-25T05:21:05.348Z,14.03
2019-03-25T05:23:37.557Z,15.30
2019-03-25T05:26:09.671Z,15.77
2019-03-25T05:28:41.732Z,15.17
2019-03-25T05:31:14.791Z,15.47
2019-03-25T05:33:46.734Z,15.33
2019-03-25T05:36:19.417Z,15.23
2019-03-25T05:38:51.406Z,14.97
2019-03-25T05:41:23.568Z,16.03
2019-03-25T05:43:55.582Z,15.77
2019-03-25T05:46:27.406Z,15.17
2019-03-25T05:48:59.548Z,15.53
2019-03-25T05:51:31.604Z,16.47
2019-03-25T05:54:04.859Z,15.97
2019-03-25T05:56:36.954Z,16.23
2019-03-25T05:59:09.024Z,15.10
2019-03-25T06:01:44.126Z,16.00
2019-03-25T06:04:15.645Z,15.20
2019-03-25T06:06:47.754Z,15.63
2019-03-25T06:09:24.285Z,16.10
2019-03-25T06:11:56.289Z,15.33
2019-03-25T06:14:28.505Z,16.13
2019-03-25T06:17:00.470Z,15.30
2019-03-25T06:19:32.470Z,15.97
2019-03-25T06:22:04.403Z,15.53
2019-03-25T06:24:36.840Z,15.70
2019-03-25T06:27:14.018Z,15.10
2019-03-25T06:29:43.773Z,15.67
2019-03-25T06:32:15.759Z,15.50
2019-03-25T06:34:47.886Z,15.40
2019-03-25T06:37:20.255Z,14.83
2019-03-25T06:39:52.340Z,13.97
2019-03-25T06:42:24.399Z,15.10
2019-03-25T06:44:56.530Z,15.67
2019-03-25T06:47:28.649Z,14.60
2019-03-25T06:50:00.717Z,14.07
2019-03-25T06:52:32.970Z,14.17
2019-03-25T06:55:05.419Z,13.87
2019-03-25T06:57:38.775Z,14.50
2019-03-25T07:00:13.069Z,14.43
2019-03-25T07:02:45.296Z,14.23
2019-03-25T07:05:17.875Z,13.93
2019-03-25T07:07:50.041Z,13.97
2019-03-25T07:10:35.436Z,13.40
2019-03-25T07:13:07.644Z,14.17
2019-03-25T07:15:39.782Z,13.90
2019-03-25T07:18:11.753Z,13.70
2019-03-25T07:20:43.660Z,13.57
2019-03-25T07:23:15.685Z,13.27
2019-03-25T07:25:47.720Z,14.40
2019-03-25T07:28:19.969Z,14.27
2019-03-25T07:30:52.216Z,13.90
2019-03-25T07:33:24.254Z,14.97
2019-03-25T07:35:56.377Z,14.50
2019-03-25T07:38:29.100Z,13.80
2019-03-25T07:41:00.994Z,13.57
2019-03-25T07:43:32.934Z,14.03
2019-03-25T07:46:05.085Z,13.80
2019-03-25T07:48:37.204Z,13.80
2019-03-25T07:51:09.368Z,13.67
2019-03-25T07:53:42.198Z,13.47
2019-03-25T07:56:14.124Z,13.53
2019-03-25T07:58:45.988Z,14.83
2019-03-25T08:01:18.076Z,14.13
2019-03-25T08:03:50.031Z,13.93
2019-03-25T08:06:22.128Z,13.93
2019-03-25T08:09:03.392Z,14.17
2019-03-25T08:11:27.894Z,13.73
2019-03-25T08:13:59.862Z,13.60
2019-03-25T08:16:31.970Z,13.80
2019-03-25T08:19:04.225Z,13.50
2019-03-25T08:21:36.385Z,13.30
2019-03-25T08:24:08.596Z,12.93
2019-03-25T08:26:42.790Z,12.53
2019-03-25T08:29:14.241Z,13.50
2019-03-25T08:31:46.225Z,14.30
2019-03-25T08:34:18.196Z,13.67
2019-03-25T08:36:50.196Z,13.07
2019-03-25T08:39:22.341Z,13.70
2019-03-25T08:41:55.264Z,14.13
2019-03-25T08:44:27.268Z,13.50
2019-03-25T08:46:59.226Z,14.73
2019-03-25T08:49:31.117Z,13.87
2019-03-25T08:52:04.257Z,13.77
2019-03-25T08:54:37.914Z,13.40
2019-03-25T08:57:10.254Z,13.63
2019-03-25T08:59:42.277Z,13.40
2019-03-25T09:02:14.580Z,13.80
2019-03-25T09:04:46.673Z,12.67
2019-03-25T09:07:18.671Z,13.70
2019-03-25T09:09:50.902Z,14.30
2019-03-25T09:12:22.929Z,13.47
2019-03-25T09:18:13.113Z,14.30
2019-03-25T09:20:45.059Z,14.63
2019-03-25T09:23:17.064Z,13.43
2019-03-25T09:25:49.003Z,13.13
2019-03-25T09:28:24.419Z,14.27
2019-03-25T09:31:20.596Z,14.13
2019-03-25T09:33:52.620Z,14.07
2019-03-25T09:36:24.817Z,13.87
2019-03-25T09:39:08.523Z,14.97
2019-03-25T09:41:40.662Z,14.13
2019-03-25T09:44:13.663Z,13.83
2019-03-25T09:46:45.660Z,14.10
2019-03-25T09:49:19.244Z,14.17
2019-03-25T09:51:52.911Z,14.00
2019-03-25T09:54:25.351Z,14.10
2019-03-25T09:57:08.949Z,13.57
2019-03-25T09:59:40.985Z,14.10
2019-03-25T10:02:12.982Z,13.47
2019-03-25T10:04:57.749Z,13.80
2019-03-25T10:07:29.629Z,13.87
2019-03-25T10:10:01.762Z,13.63
2019-03-25T10:12:34.501Z,13.37
2019-03-25T10:15:07.713Z,12.73
2019-03-25T10:17:50.630Z,12.73
2019-03-25T10:20:22.625Z,12.30
2019-03-25T10:22:54.776Z,12.27
2019-03-25T10:25:27.045Z,11.90
2019-03-25T10:27:58.892Z,10.07
2019-03-25T10:30:31.196Z,8.27
2019-03-25T10:33:03.196Z,8.23
2019-03-25T10:35:35.184Z,7.93
2019-03-25T10:38:18.851Z,8.07
2019-03-25T10:40:40.858Z,8.70
2019-03-25T10:43:13.105Z,8.20
2019-03-25T10:45:45.334Z,7.73
2019-03-25T10:48:17.589Z,6.93
2019-03-25T10:50:49.630Z,7.10
2019-03-25T10:53:21.639Z,7.40
2019-03-25T10:55:53.739Z,7.30
2019-03-25T10:58:25.737Z,6.63
2019-03-25T11:00:57.881Z,6.70
2019-03-25T11:03:29.939Z,7.10
2019-03-25T11:06:02.001Z,7.03
2019-03-25T11:08:33.993Z,7.00
2019-03-25T11:11:06.429Z,7.30
2019-03-25T11:13:49.715Z,7.17
2019-03-25T11:16:21.785Z,6.80
2019-03-25T11:18:54.081Z,6.30
2019-03-25T11:21:26.053Z,7.00
2019-03-25T11:23:57.955Z,6.43
2019-03-25T11:26:30.958Z,6.60
2019-03-25T11:29:08.439Z,6.83
2019-03-25T11:31:38.037Z,6.27
2019-03-25T11:34:10.177Z,5.53
2019-03-25T11:36:42.168Z,5.07
2019-03-25T11:39:14.215Z,4.73
2019-03-25T11:41:46.129Z,4.47
2019-03-25T11:44:18.118Z,5.47
2019-03-25T11:46:51.008Z,5.40
2019-03-25T11:49:23.194Z,5.63
2019-03-25T11:52:14.817Z,5.60
2019-03-25T11:54:46.724Z,6.33
2019-03-25T11:57:18.742Z,6.20
2019-03-25T11:59:51.635Z,6.03
2019-03-25T12:02:23.854Z,6.73
2019-03-25T12:04:56.065Z,6.73
2019-03-25T12:07:28.141Z,7.13
2019-03-25T12:09:59.995Z,7.33
2019-03-25T12:12:32.038Z,8.10
2019-03-25T12:15:04.493Z,7.37
2019-03-25T12:17:36.481Z,7.87
2019-03-25T12:20:09.346Z,7.43
2019-03-25T12:22:41.616Z,7.37
2019-03-25T12:25:13.656Z,7.20
2019-03-25T12:27:45.652Z,7.23
2019-03-25T12:30:19.001Z,7.13
2019-03-25T12:32:51.001Z,6.80
2019-03-25T12:35:23.052Z,6.77
2019-03-25T12:37:55.138Z,6.60
2019-03-25T12:40:27.238Z,6.73
2019-03-25T12:42:59.298Z,7.10
2019-03-25T12:45:31.408Z,7.23
2019-03-25T12:48:05.133Z,7.60
2019-03-25T12:50:38.732Z,6.67
2019-03-25T12:53:11.708Z,6.37
2019-03-25T12:55:44.307Z,5.90
2019-03-25T12:58:16.449Z,5.50
2019-03-25T13:00:48.340Z,5.30
2019-03-25T13:03:20.424Z,5.33
2019-03-25T13:05:52.395Z,5.33
2019-03-25T13:08:32.758Z,4.67
2019-03-25T13:10:58.140Z,4.97
2019-03-25T13:13:30.388Z,4.93
2019-03-25T13:16:02.388Z,4.83
2019-03-25T13:18:34.337Z,4.60
2019-03-25T13:21:06.461Z,4.80
2019-03-25T13:23:40.158Z,4.67
2019-03-25T13:26:12.229Z,4.50
2019-03-25T13:28:44.273Z,5.40
2019-03-25T13:31:16.296Z,5.47
2019-03-25T13:33:48.323Z,5.13
2019-03-25T13:36:20.299Z,4.33
2019-03-25T13:38:52.717Z,4.60
2019-03-25T13:41:24.575Z,4.60
2019-03-25T13:43:57.898Z,4.60
2019-03-25T13:46:30.423Z,5.10
2019-03-25T13:49:03.498Z,4.97
2019-03-25T13:51:35.711Z,5.40
2019-03-25T13:54:07.713Z,5.10
2019-03-25T13:56:39.559Z,5.70
2019-03-25T13:59:11.782Z,6.10
2019-03-25T14:01:43.839Z,6.00
2019-03-25T14:04:16.019Z,5.60
2019-03-25T14:06:47.966Z,6.00
2019-03-25T14:09:20.078Z,6.57
2019-03-25T14:11:52.174Z,6.47
2019-03-25T14:14:24.430Z,6.37
2019-03-25T14:16:56.413Z,6.47
2019-03-25T14:19:29.370Z,6.53
2019-03-25T14:22:01.673Z,6.80
2019-03-25T14:24:34.010Z,6.80
2019-03-25T14:27:06.054Z,6.60
2019-03-25T14:29:38.140Z,6.70
2019-03-25T14:32:10.549Z,6.60
2019-03-25T14:34:44.940Z,6.77
2019-03-25T14:37:16.112Z,6.87
2019-03-25T14:39:48.129Z,6.40
2019-03-25T14:42:20.137Z,6.30
2019-03-25T14:44:52.145Z,6.30
2019-03-25T14:47:24.349Z,6.40
2019-03-25T14:49:57.258Z,6.07
2019-03-25T14:52:29.378Z,7.10
2019-03-25T14:55:01.598Z,7.87
2019-03-25T14:57:34.202Z,6.37
2019-03-25T15:00:08.167Z,5.73
2019-03-25T15:02:40.481Z,6.47
2019-03-25T15:05:13.380Z,5.97
2019-03-25T15:07:45.309Z,6.37
2019-03-25T15:10:17.532Z,6.50
2019-03-25T15:12:49.765Z,6.63
2019-03-25T15:15:22.018Z,6.30
2019-03-25T15:17:54.125Z,6.37
2019-03-25T15:20:26.178Z,6.70
2019-03-25T15:22:58.239Z,9.00
2019-03-25T15:25:30.216Z,8.50
2019-03-25T15:28:02.263Z,7.93
2019-03-25T15:30:36.344Z,7.00
2019-03-25T15:33:08.519Z,6.93
2019-03-25T15:35:40.812Z,6.90
2019-03-25T15:38:12.785Z,6.80
2019-03-25T15:40:44.913Z,6.50
2019-03-25T15:43:16.842Z,6.63
2019-03-25T15:45:49.004Z,6.80
2019-03-25T15:48:21.020Z,7.93
2019-03-25T15:50:53.284Z,6.77
2019-03-25T15:53:25.329Z,7.00
2019-03-25T15:55:57.657Z,7.00
2019-03-25T15:58:29.586Z,7.00
2019-03-25T16:01:04.950Z,7.20
2019-03-25T16:03:37.531Z,7.30
2019-03-25T16:06:24.492Z,7.23
2019-03-25T16:08:54.880Z,7.23
2019-03-25T16:11:26.919Z,7.27
2019-03-25T16:13:59.163Z,7.00
2019-03-25T16:16:31.207Z,6.80
2019-03-25T16:19:03.296Z,7.43
2019-03-25T16:21:36.095Z,6.80
2019-03-25T16:24:08.378Z,6.90
2019-03-25T16:26:40.680Z,6.90
2019-03-25T16:29:12.752Z,6.97
2019-03-25T16:31:44.924Z,6.77
2019-03-25T16:34:16.915Z,6.70
2019-03-25T16:36:49.594Z,6.83
2019-03-25T16:39:22.440Z,7.43
2019-03-25T16:41:54.756Z,7.30
2019-03-25T16:44:27.629Z,7.53
2019-03-25T16:46:59.888Z,6.77
2019-03-25T16:49:31.924Z,7.27
2019-03-25T16:52:04.014Z,7.37
2019-03-25T16:54:36.901Z,7.40
2019-03-25T16:57:08.957Z,6.47
2019-03-25T16:59:40.947Z,6.73
2019-03-25T17:02:12.946Z,6.93
2019-03-25T17:04:45.037Z,7.10
2019-03-25T17:07:17.146Z,7.00
2019-03-25T17:09:49.557Z,7.10
2019-03-25T17:12:22.177Z,6.77
2019-03-25T17:14:54.414Z,7.67
2019-03-25T17:17:26.837Z,7.20
2019-03-25T17:19:58.866Z,7.37
2019-03-25T17:22:31.192Z,7.53
2019-03-25T17:25:03.726Z,7.40
2019-03-25T17:27:35.765Z,7.20
2019-03-25T17:30:10.622Z,7.50
2019-03-25T17:32:43.002Z,7.60
2019-03-25T17:35:15.101Z,7.33
2019-03-25T17:37:47.191Z,7.50
2019-03-25T17:40:19.336Z,9.70
2019-03-25T17:42:51.436Z,9.10
2019-03-25T17:45:24.932Z,8.07
2019-03-25T17:47:57.041Z,7.67
2019-03-25T17:50:29.021Z,7.80
2019-03-25T17:53:01.431Z,7.37
2019-03-25T17:55:33.509Z,7.30
2019-03-25T17:58:07.969Z,7.50
2019-03-25T18:01:10.232Z,7.47
2019-03-25T18:03:42.324Z,8.10
2019-03-25T18:06:14.454Z,7.53
2019-03-25T18:08:46.557Z,7.70
2019-03-25T18:11:18.582Z,7.73
2019-03-25T18:13:50.807Z,7.73
2019-03-25T18:16:22.932Z,7.47
2019-03-25T18:18:54.761Z,7.60
2019-03-25T18:21:26.699Z,7.70
2019-03-25T18:23:58.715Z,7.73
2019-03-25T18:26:31.012Z,7.77
2019-03-25T18:29:03.018Z,7.97
2019-03-25T18:31:43.330Z,8.10
2019-03-25T18:34:09.498Z,8.20
2019-03-25T18:36:41.464Z,8.07
2019-03-25T18:39:14.680Z,7.97
2019-03-25T18:41:46.797Z,7.90
2019-03-25T18:44:18.856Z,7.97
2019-03-25T18:46:51.499Z,7.93
2019-03-25T18:49:23.895Z,7.97
2019-03-25T18:51:56.244Z,7.83
2019-03-25T18:54:28.154Z,8.07
2019-03-25T18:57:00.952Z,7.90
2019-03-25T18:59:33.114Z,7.83
2019-03-25T19:02:05.162Z,8.20
2019-03-25T19:04:37.230Z,8.30
2019-03-25T19:07:09.168Z,8.60
2019-03-25T19:09:41.412Z,8.20
2019-03-25T19:12:13.727Z,8.77
2019-03-25T19:14:47.717Z,8.60
2019-03-25T19:17:19.733Z,8.37
2019-03-25T19:19:51.800Z,8.50
2019-03-25T19:22:24.017Z,8.83
2019-03-25T19:24:56.003Z,8.97
2019-03-25T19:27:28.075Z,8.30
2019-03-25T19:30:00.571Z,8.87
2019-03-25T19:32:32.638Z,8.90
2019-03-25T19:35:06.441Z,8.47
2019-03-25T19:37:38.499Z,8.40
2019-03-25T19:40:10.771Z,8.50
2019-03-25T19:42:43.227Z,8.60
2019-03-25T19:45:16.385Z,8.67
2019-03-25T19:47:51.748Z,8.90
2019-03-25T19:50:24.872Z,8.73
2019-03-25T19:53:00.297Z,9.03
2019-03-25T19:55:32.629Z,8.73
2019-03-25T19:58:05.731Z,8.77
2019-03-25T20:00:39.417Z,9.13
2019-03-25T20:03:12.003Z,9.03
2019-03-25T20:05:48.856Z,9.50
2019-03-25T20:08:22.210Z,8.90
2019-03-25T20:10:54.422Z,9.17
2019-03-25T20:13:27.118Z,9.20
2019-03-25T20:16:11.105Z,8.43
2019-03-25T20:18:46.575Z,8.80
2019-03-25T20:21:30.199Z,8.43
2019-03-25T20:24:03.198Z,8.50
2019-03-25T20:26:35.617Z,8.80
2019-03-25T20:29:11.582Z,8.90
2019-03-25T20:31:50.680Z,8.50
2019-03-25T20:34:24.158Z,8.70
2019-03-25T20:36:57.515Z,8.10
2019-03-25T20:39:30.182Z,8.83
2019-03-25T20:42:02.603Z,8.47
2019-03-25T20:44:34.929Z,8.83
2019-03-25T20:47:07.065Z,8.57
2019-03-25T20:49:39.231Z,8.73
2019-03-25T20:52:11.748Z,8.40
2019-03-25T20:54:43.725Z,8.63
2019-03-25T20:57:16.058Z,8.30
2019-03-25T20:59:48.612Z,8.67
2019-03-25T21:02:20.997Z,8.37
2019-03-25T21:04:53.436Z,8.50
2019-03-25T21:07:28.381Z,8.57
2019-03-25T21:10:03.801Z,8.53
2019-03-25T21:12:39.190Z,8.30
2019-03-25T21:15:16.304Z,8.67
2019-03-25T21:17:49.366Z,8.80
2019-03-25T21:20:21.333Z,8.27
2019-03-25T21:22:53.749Z,8.67
2019-03-25T21:25:28.096Z,8.27
2019-03-25T21:28:00.490Z,8.13
2019-03-25T21:30:46.994Z,8.60
2019-03-25T21:33:08.569Z,8.63
2019-03-25T21:35:40.609Z,8.87
2019-03-25T21:38:13.432Z,8.50
2019-03-25T21:40:46.902Z,8.63
2019-03-25T21:43:19.960Z,8.60
2019-03-25T21:45:55.349Z,8.60
2019-03-25T21:48:28.141Z,8.60
2019-03-25T21:51:04.457Z,8.20
2019-03-25T21:53:36.900Z,8.63
2019-03-25T21:56:09.679Z,8.60
2019-03-25T21:58:42.187Z,8.27
2019-03-25T22:01:15.395Z,8.50
2019-03-25T22:03:47.839Z,8.57
2019-03-25T22:06:20.068Z,8.83
2019-03-25T22:11:22.840Z,8.57
2019-03-25T22:13:55.181Z,8.80
2019-03-25T22:16:28.020Z,8.93
2019-03-25T22:19:00.873Z,9.20
2019-03-25T22:21:33.302Z,9.00
2019-03-25T22:24:09.684Z,8.63
2019-03-25T22:26:43.098Z,8.80
2019-03-25T22:29:15.483Z,8.43
2019-03-25T22:31:48.072Z,9.30
2019-03-25T22:34:21.442Z,8.87
2019-03-25T22:36:53.801Z,8.93
2019-03-25T22:39:26.421Z,8.70
2019-03-25T22:42:02.448Z,8.67
2019-03-25T22:44:34.380Z,8.90
2019-03-25T22:47:08.089Z,9.00
2019-03-25T22:49:40.608Z,8.90
2019-03-25T22:52:13.466Z,8.77
2019-03-25T22:54:45.519Z,8.70
2019-03-25T22:57:17.948Z,8.73
2019-03-25T22:59:53.009Z,8.80
2019-03-25T23:02:25.154Z,8.80
2019-03-25T23:04:57.197Z,8.97
2019-03-25T23:07:29.385Z,9.07
2019-03-25T23:10:01.800Z,9.37
2019-03-25T23:12:35.538Z,9.20
2019-03-25T23:15:08.123Z,9.40
2019-03-25T23:17:40.180Z,9.20
2019-03-25T23:20:12.759Z,9.23
2019-03-25T23:22:44.932Z,9.63
2019-03-25T23:25:16.830Z,9.30
2019-03-25T23:27:48.836Z,9.17
2019-03-25T23:30:20.813Z,8.90
2019-03-25T23:32:52.993Z,9.20
2019-03-25T23:35:27.911Z,9.37
2019-03-25T23:38:00.141Z,9.10
2019-03-25T23:40:32.190Z,9.20
2019-03-25T23:43:04.293Z,9.87
2019-03-25T23:45:36.346Z,9.60
2019-03-25T23:48:08.369Z,9.20
2019-03-25T23:50:40.236Z,9.13
2019-03-25T23:53:13.206Z,9.30
2019-03-25T23:55:45.217Z,9.10
2019-03-25T23:58:17.187Z,8.80
